sensor_id;sensor_type;location;lat;lon;timestamp;temperature;humidity
47521;DHT22;32291;52.010;4.446;2024-02-15T00:00:41;12.60;99.90
47521;DHT22;32291;52.010;4.446;2024-02-15T00:01:46;12.60;99.90
47521;DHT22;32291;52.010;4.446;2024-02-15T00:02:49;12.60;99.90
47521;DHT22;32291;52.010;4.446;2024-02-15T00:03:56;12.60;99.90
47521;DHT22;32291;52.010;4.446;2024-02-15T00:05:04;12.60;99.90
47521;DHT22;32291;52.010;4.446;2024-02-15T00:06:15;12.60;99.90
47521;DHT22;32291;52.010;4.446;2024-02-15T00:07:17;12.70;99.90
47521;DHT22;32291;52.010;4.446;2024-02-15T00:08:26;12.70;99.90
47521;DHT22;32291;52.010;4.446;2024-02-15T00:09:35;12.70;99.90
47521;DHT22;32291;52.010;4.446;2024-02-15T00:10:42;12.60;99.90
47521;DHT22;32291;52.010;4.446;2024-02-15T00:11:50;12.70;99.90
47521;DHT22;32291;52.010;4.446;2024-02-15T00:12:58;12.70;99.90
47521;DHT22;32291;52.010;4.446;2024-02-15T00:14:05;12.70;99.90
47521;DHT22;32291;52.010;4.446;2024-02-15T00:15:13;12.70;99.90
47521;DHT22;32291;52.010;4.446;2024-02-15T00:16:15;12.70;99.90
47521;DHT22;32291;52.010;4.446;2024-02-15T00:17:17;12.80;99.90
47521;DHT22;32291;52.010;4.446;2024-02-15T00:18:20;12.80;99.90
47521;DHT22;32291;52.010;4.446;2024-02-15T00:19:22;12.80;99.90
47521;DHT22;32291;52.010;4.446;2024-02-15T00:20:24;12.80;99.90
47521;DHT22;32291;52.010;4.446;2024-02-15T00:21:31;12.80;99.90
47521;DHT22;32291;52.010;4.446;2024-02-15T00:22:33;12.80;99.90
47521;DHT22;32291;52.010;4.446;2024-02-15T00:23:41;12.80;99.90
47521;DHT22;32291;52.010;4.446;2024-02-15T00:24:44;12.80;99.90
47521;DHT22;32291;52.010;4.446;2024-02-15T00:25:46;12.80;99.90
47521;DHT22;32291;52.010;4.446;2024-02-15T00:26:53;12.70;99.90
47521;DHT22;32291;52.010;4.446;2024-02-15T00:27:55;12.70;99.90
47521;DHT22;32291;52.010;4.446;2024-02-15T00:28:58;12.80;99.90
47521;DHT22;32291;52.010;4.446;2024-02-15T00:30:06;12.80;99.90
47521;DHT22;32291;52.010;4.446;2024-02-15T00:31:14;12.80;99.90
47521;DHT22;32291;52.010;4.446;2024-02-15T00:32:24;12.70;99.90
47521;DHT22;32291;52.010;4.446;2024-02-15T00:33:26;12.80;99.90
47521;DHT22;32291;52.010;4.446;2024-02-15T00:34:33;12.70;99.90
47521;DHT22;32291;52.010;4.446;2024-02-15T00:35:40;12.70;99.90
47521;DHT22;32291;52.010;4.446;2024-02-15T00:36:43;12.70;99.90
47521;DHT22;32291;52.010;4.446;2024-02-15T00:37:45;12.70;99.90
47521;DHT22;32291;52.010;4.446;2024-02-15T00:38:52;12.70;99.90
47521;DHT22;32291;52.010;4.446;2024-02-15T00:39:55;12.60;99.90
47521;DHT22;32291;52.010;4.446;2024-02-15T00:41:01;12.70;99.90
47521;DHT22;32291;52.010;4.446;2024-02-15T00:42:04;12.70;99.90
47521;DHT22;32291;52.010;4.446;2024-02-15T00:43:15;12.70;99.90
47521;DHT22;32291;52.010;4.446;2024-02-15T00:44:22;12.60;99.90
47521;DHT22;32291;52.010;4.446;2024-02-15T00:45:29;12.60;99.90
47521;DHT22;32291;52.010;4.446;2024-02-15T00:46:36;12.70;99.90
47521;DHT22;32291;52.010;4.446;2024-02-15T00:47:44;12.60;99.90
47521;DHT22;32291;52.010;4.446;2024-02-15T00:48:51;12.70;99.90
47521;DHT22;32291;52.010;4.446;2024-02-15T00:49:53;12.70;99.90
47521;DHT22;32291;52.010;4.446;2024-02-15T00:51:00;12.70;99.90
47521;DHT22;32291;52.010;4.446;2024-02-15T00:52:07;12.70;99.90
47521;DHT22;32291;52.010;4.446;2024-02-15T00:53:14;12.70;99.90
47521;DHT22;32291;52.010;4.446;2024-02-15T00:54:23;12.70;99.90
47521;DHT22;32291;52.010;4.446;2024-02-15T00:55:29;12.70;99.90
47521;DHT22;32291;52.010;4.446;2024-02-15T00:56:36;12.70;99.90
47521;DHT22;32291;52.010;4.446;2024-02-15T00:57:43;12.70;99.90
47521;DHT22;32291;52.010;4.446;2024-02-15T00:58:50;12.70;99.90
47521;DHT22;32291;52.010;4.446;2024-02-15T00:59:57;12.70;99.90
47521;DHT22;32291;52.010;4.446;2024-02-15T01:01:03;12.70;99.90
47521;DHT22;32291;52.010;4.446;2024-02-15T01:02:05;12.70;99.90
47521;DHT22;32291;52.010;4.446;2024-02-15T01:03:08;12.70;99.90
47521;DHT22;32291;52.010;4.446;2024-02-15T01:04:15;12.70;99.90
47521;DHT22;32291;52.010;4.446;2024-02-15T01:05:22;12.70;99.90
47521;DHT22;32291;52.010;4.446;2024-02-15T01:06:30;12.70;99.90
47521;DHT22;32291;52.010;4.446;2024-02-15T01:07:37;12.70;99.90
47521;DHT22;32291;52.010;4.446;2024-02-15T01:08:44;12.70;99.90
47521;DHT22;32291;52.010;4.446;2024-02-15T01:09:51;12.70;99.90
47521;DHT22;32291;52.010;4.446;2024-02-15T01:10:53;12.70;99.90
47521;DHT22;32291;52.010;4.446;2024-02-15T01:12:01;12.70;99.90
47521;DHT22;32291;52.010;4.446;2024-02-15T01:13:09;12.70;99.90
47521;DHT22;32291;52.010;4.446;2024-02-15T01:14:12;12.60;99.90
47521;DHT22;32291;52.010;4.446;2024-02-15T01:15:18;12.60;99.90
47521;DHT22;32291;52.010;4.446;2024-02-15T01:16:26;12.60;99.90
47521;DHT22;32291;52.010;4.446;2024-02-15T01:17:28;12.60;99.90
47521;DHT22;32291;52.010;4.446;2024-02-15T01:18:35;12.60;99.90
47521;DHT22;32291;52.010;4.446;2024-02-15T01:19:38;12.60;99.90
47521;DHT22;32291;52.010;4.446;2024-02-15T01:20:45;12.60;99.90
47521;DHT22;32291;52.010;4.446;2024-02-15T01:21:51;12.50;99.90
47521;DHT22;32291;52.010;4.446;2024-02-15T01:23:00;12.50;99.90
47521;DHT22;32291;52.010;4.446;2024-02-15T01:24:09;12.50;99.90
47521;DHT22;32291;52.010;4.446;2024-02-15T01:25:14;12.40;99.90
47521;DHT22;32291;52.010;4.446;2024-02-15T01:26:23;12.50;99.90
47521;DHT22;32291;52.010;4.446;2024-02-15T01:27:25;12.40;99.90
47521;DHT22;32291;52.010;4.446;2024-02-15T01:28:36;12.40;99.90
47521;DHT22;32291;52.010;4.446;2024-02-15T01:29:44;12.40;99.90
47521;DHT22;32291;52.010;4.446;2024-02-15T01:30:46;12.40;99.90
47521;DHT22;32291;52.010;4.446;2024-02-15T01:31:53;12.40;99.90
47521;DHT22;32291;52.010;4.446;2024-02-15T01:32:59;12.40;99.90
47521;DHT22;32291;52.010;4.446;2024-02-15T01:34:02;12.40;99.90
47521;DHT22;32291;52.010;4.446;2024-02-15T01:35:09;12.40;99.90
47521;DHT22;32291;52.010;4.446;2024-02-15T01:36:18;12.40;99.90
47521;DHT22;32291;52.010;4.446;2024-02-15T01:37:25;12.40;99.90
47521;DHT22;32291;52.010;4.446;2024-02-15T01:38:32;12.40;99.90
47521;DHT22;32291;52.010;4.446;2024-02-15T01:39:39;12.40;99.90
47521;DHT22;32291;52.010;4.446;2024-02-15T01:40:47;12.40;99.90
47521;DHT22;32291;52.010;4.446;2024-02-15T01:41:54;12.40;99.90
47521;DHT22;32291;52.010;4.446;2024-02-15T01:43:03;12.40;99.90
47521;DHT22;32291;52.010;4.446;2024-02-15T01:44:10;12.40;99.90
47521;DHT22;32291;52.010;4.446;2024-02-15T01:45:18;12.40;99.90
47521;DHT22;32291;52.010;4.446;2024-02-15T01:46:26;12.40;99.90
47521;DHT22;32291;52.010;4.446;2024-02-15T01:47:33;12.30;99.90
47521;DHT22;32291;52.010;4.446;2024-02-15T01:48:40;12.30;99.90
47521;DHT22;32291;52.010;4.446;2024-02-15T01:49:48;12.20;99.90
47521;DHT22;32291;52.010;4.446;2024-02-15T01:50:51;12.20;99.90
47521;DHT22;32291;52.010;4.446;2024-02-15T01:51:54;12.30;99.90
47521;DHT22;32291;52.010;4.446;2024-02-15T01:52:58;12.30;99.90
47521;DHT22;32291;52.010;4.446;2024-02-15T01:54:03;12.30;99.90
47521;DHT22;32291;52.010;4.446;2024-02-15T01:55:11;12.30;99.90
47521;DHT22;32291;52.010;4.446;2024-02-15T01:56:19;12.30;99.90
47521;DHT22;32291;52.010;4.446;2024-02-15T01:57:23;12.30;99.90
47521;DHT22;32291;52.010;4.446;2024-02-15T01:58:30;12.20;99.90
47521;DHT22;32291;52.010;4.446;2024-02-15T01:59:38;12.20;99.90
47521;DHT22;32291;52.010;4.446;2024-02-15T02:00:42;12.20;99.90
47521;DHT22;32291;52.010;4.446;2024-02-15T02:01:49;12.20;99.90
47521;DHT22;32291;52.010;4.446;2024-02-15T02:02:57;12.20;99.90
47521;DHT22;32291;52.010;4.446;2024-02-15T02:04:04;12.30;99.90
47521;DHT22;32291;52.010;4.446;2024-02-15T02:05:11;12.20;99.90
47521;DHT22;32291;52.010;4.446;2024-02-15T02:06:16;12.20;99.90
47521;DHT22;32291;52.010;4.446;2024-02-15T02:07:23;12.20;99.90
47521;DHT22;32291;52.010;4.446;2024-02-15T02:08:30;12.20;99.90
47521;DHT22;32291;52.010;4.446;2024-02-15T02:09:32;12.20;99.90
47521;DHT22;32291;52.010;4.446;2024-02-15T02:10:40;12.20;99.90
47521;DHT22;32291;52.010;4.446;2024-02-15T02:11:46;12.30;99.90
47521;DHT22;32291;52.010;4.446;2024-02-15T02:12:50;12.30;99.90
47521;DHT22;32291;52.010;4.446;2024-02-15T02:13:57;12.30;99.90
47521;DHT22;32291;52.010;4.446;2024-02-15T02:15:06;12.20;99.90
47521;DHT22;32291;52.010;4.446;2024-02-15T02:16:31;12.30;99.90
47521;DHT22;32291;52.010;4.446;2024-02-15T02:17:38;12.40;99.90
47521;DHT22;32291;52.010;4.446;2024-02-15T02:18:46;12.30;99.90
47521;DHT22;32291;52.010;4.446;2024-02-15T02:19:54;12.30;99.90
47521;DHT22;32291;52.010;4.446;2024-02-15T02:20:57;12.40;99.90
47521;DHT22;32291;52.010;4.446;2024-02-15T02:22:04;12.40;99.90
47521;DHT22;32291;52.010;4.446;2024-02-15T02:23:15;12.40;99.90
47521;DHT22;32291;52.010;4.446;2024-02-15T02:24:25;12.40;99.90
47521;DHT22;32291;52.010;4.446;2024-02-15T02:25:28;12.40;99.90
47521;DHT22;32291;52.010;4.446;2024-02-15T02:26:41;12.40;99.90
47521;DHT22;32291;52.010;4.446;2024-02-15T02:27:49;12.40;99.90
47521;DHT22;32291;52.010;4.446;2024-02-15T02:28:57;12.40;99.90
47521;DHT22;32291;52.010;4.446;2024-02-15T02:30:12;12.40;99.90
47521;DHT22;32291;52.010;4.446;2024-02-15T02:31:16;12.40;99.90
47521;DHT22;32291;52.010;4.446;2024-02-15T02:32:26;12.40;99.90
47521;DHT22;32291;52.010;4.446;2024-02-15T02:33:29;12.40;99.90
47521;DHT22;32291;52.010;4.446;2024-02-15T02:34:31;12.40;99.90
47521;DHT22;32291;52.010;4.446;2024-02-15T02:35:33;12.50;99.90
47521;DHT22;32291;52.010;4.446;2024-02-15T02:36:35;12.50;99.90
47521;DHT22;32291;52.010;4.446;2024-02-15T02:37:46;12.50;99.90
47521;DHT22;32291;52.010;4.446;2024-02-15T02:38:56;12.50;99.90
47521;DHT22;32291;52.010;4.446;2024-02-15T02:40:10;12.60;99.90
47521;DHT22;32291;52.010;4.446;2024-02-15T02:41:16;12.60;99.90
47521;DHT22;32291;52.010;4.446;2024-02-15T02:42:23;12.50;99.90
47521;DHT22;32291;52.010;4.446;2024-02-15T02:43:26;12.50;99.90
47521;DHT22;32291;52.010;4.446;2024-02-15T02:44:33;12.60;99.90
47521;DHT22;32291;52.010;4.446;2024-02-15T02:45:40;12.60;99.90
47521;DHT22;32291;52.010;4.446;2024-02-15T02:46:48;12.60;99.90
47521;DHT22;32291;52.010;4.446;2024-02-15T02:47:55;12.60;99.90
47521;DHT22;32291;52.010;4.446;2024-02-15T02:49:02;12.60;99.90
47521;DHT22;32291;52.010;4.446;2024-02-15T02:50:05;12.60;99.90
47521;DHT22;32291;52.010;4.446;2024-02-15T02:51:15;12.60;99.90
47521;DHT22;32291;52.010;4.446;2024-02-15T02:52:17;12.60;99.90
47521;DHT22;32291;52.010;4.446;2024-02-15T02:53:26;12.60;99.90
47521;DHT22;32291;52.010;4.446;2024-02-15T02:54:36;12.60;99.90
47521;DHT22;32291;52.010;4.446;2024-02-15T02:55:41;12.60;99.90
47521;DHT22;32291;52.010;4.446;2024-02-15T02:56:52;12.60;99.90
47521;DHT22;32291;52.010;4.446;2024-02-15T02:57:58;12.70;99.90
47521;DHT22;32291;52.010;4.446;2024-02-15T02:59:06;12.60;99.90
47521;DHT22;32291;52.010;4.446;2024-02-15T03:00:14;12.60;99.90
47521;DHT22;32291;52.010;4.446;2024-02-15T03:01:23;12.60;99.90
47521;DHT22;32291;52.010;4.446;2024-02-15T03:02:35;12.60;99.90
47521;DHT22;32291;52.010;4.446;2024-02-15T03:03:39;12.60;99.90
47521;DHT22;32291;52.010;4.446;2024-02-15T03:04:46;12.60;99.90
47521;DHT22;32291;52.010;4.446;2024-02-15T03:05:54;12.60;99.90
47521;DHT22;32291;52.010;4.446;2024-02-15T03:06:56;12.50;99.90
47521;DHT22;32291;52.010;4.446;2024-02-15T03:07:59;12.60;99.90
47521;DHT22;32291;52.010;4.446;2024-02-15T03:09:06;12.60;99.90
47521;DHT22;32291;52.010;4.446;2024-02-15T03:10:11;12.60;99.90
47521;DHT22;32291;52.010;4.446;2024-02-15T03:11:20;12.60;99.90
47521;DHT22;32291;52.010;4.446;2024-02-15T03:12:27;12.60;99.90
47521;DHT22;32291;52.010;4.446;2024-02-15T03:13:30;12.60;99.90
47521;DHT22;32291;52.010;4.446;2024-02-15T03:14:32;12.60;99.90
47521;DHT22;32291;52.010;4.446;2024-02-15T03:15:41;12.60;99.90
47521;DHT22;32291;52.010;4.446;2024-02-15T03:16:43;12.60;99.90
47521;DHT22;32291;52.010;4.446;2024-02-15T03:17:50;12.60;99.90
47521;DHT22;32291;52.010;4.446;2024-02-15T03:18:58;12.60;99.90
47521;DHT22;32291;52.010;4.446;2024-02-15T03:20:13;12.60;99.90
47521;DHT22;32291;52.010;4.446;2024-02-15T03:21:27;12.60;99.90
47521;DHT22;32291;52.010;4.446;2024-02-15T03:22:34;12.60;99.90
47521;DHT22;32291;52.010;4.446;2024-02-15T03:23:40;12.60;99.90
47521;DHT22;32291;52.010;4.446;2024-02-15T03:24:48;12.60;99.90
47521;DHT22;32291;52.010;4.446;2024-02-15T03:25:54;12.60;99.90
47521;DHT22;32291;52.010;4.446;2024-02-15T03:26:57;12.60;99.90
47521;DHT22;32291;52.010;4.446;2024-02-15T03:27:59;12.50;99.90
47521;DHT22;32291;52.010;4.446;2024-02-15T03:29:10;12.50;99.90
47521;DHT22;32291;52.010;4.446;2024-02-15T03:30:16;12.50;99.90
47521;DHT22;32291;52.010;4.446;2024-02-15T03:31:23;12.50;99.90
47521;DHT22;32291;52.010;4.446;2024-02-15T03:32:30;12.50;99.90
47521;DHT22;32291;52.010;4.446;2024-02-15T03:33:32;12.50;99.90
47521;DHT22;32291;52.010;4.446;2024-02-15T03:34:40;12.50;99.90
47521;DHT22;32291;52.010;4.446;2024-02-15T03:35:48;12.50;99.90
47521;DHT22;32291;52.010;4.446;2024-02-15T03:36:57;12.50;99.90
47521;DHT22;32291;52.010;4.446;2024-02-15T03:38:07;12.50;99.90
47521;DHT22;32291;52.010;4.446;2024-02-15T03:39:09;12.50;99.90
47521;DHT22;32291;52.010;4.446;2024-02-15T03:40:17;12.40;99.90
47521;DHT22;32291;52.010;4.446;2024-02-15T03:41:23;12.40;99.90
47521;DHT22;32291;52.010;4.446;2024-02-15T03:42:30;12.50;99.90
47521;DHT22;32291;52.010;4.446;2024-02-15T03:43:32;12.40;99.90
47521;DHT22;32291;52.010;4.446;2024-02-15T03:44:41;12.40;99.90
47521;DHT22;32291;52.010;4.446;2024-02-15T03:45:48;12.40;99.90
47521;DHT22;32291;52.010;4.446;2024-02-15T03:46:55;12.50;99.90
47521;DHT22;32291;52.010;4.446;2024-02-15T03:48:01;12.40;99.90
47521;DHT22;32291;52.010;4.446;2024-02-15T03:49:11;12.40;99.90
47521;DHT22;32291;52.010;4.446;2024-02-15T03:50:15;12.40;99.90
47521;DHT22;32291;52.010;4.446;2024-02-15T03:51:22;12.40;99.90
47521;DHT22;32291;52.010;4.446;2024-02-15T03:52:31;12.40;99.90
47521;DHT22;32291;52.010;4.446;2024-02-15T03:53:33;12.40;99.90
47521;DHT22;32291;52.010;4.446;2024-02-15T03:54:43;12.40;99.90
47521;DHT22;32291;52.010;4.446;2024-02-15T03:55:50;12.30;99.90
47521;DHT22;32291;52.010;4.446;2024-02-15T03:56:59;12.30;99.90
47521;DHT22;32291;52.010;4.446;2024-02-15T03:58:02;12.30;99.90
47521;DHT22;32291;52.010;4.446;2024-02-15T03:59:09;12.30;99.90
47521;DHT22;32291;52.010;4.446;2024-02-15T04:00:16;12.30;99.90
47521;DHT22;32291;52.010;4.446;2024-02-15T04:01:27;12.30;99.90
47521;DHT22;32291;52.010;4.446;2024-02-15T04:02:34;12.40;99.90
47521;DHT22;32291;52.010;4.446;2024-02-15T04:03:42;12.30;99.90
47521;DHT22;32291;52.010;4.446;2024-02-15T04:04:49;12.30;99.90
47521;DHT22;32291;52.010;4.446;2024-02-15T04:05:59;12.30;99.90
47521;DHT22;32291;52.010;4.446;2024-02-15T04:07:04;12.30;99.90
47521;DHT22;32291;52.010;4.446;2024-02-15T04:08:11;12.30;99.90
47521;DHT22;32291;52.010;4.446;2024-02-15T04:09:18;12.30;99.90
47521;DHT22;32291;52.010;4.446;2024-02-15T04:10:22;12.30;99.90
47521;DHT22;32291;52.010;4.446;2024-02-15T04:11:29;12.30;99.90
47521;DHT22;32291;52.010;4.446;2024-02-15T04:12:40;12.30;99.90
47521;DHT22;32291;52.010;4.446;2024-02-15T04:13:49;12.30;99.90
47521;DHT22;32291;52.010;4.446;2024-02-15T04:14:56;12.30;99.90
47521;DHT22;32291;52.010;4.446;2024-02-15T04:16:07;12.30;99.90
47521;DHT22;32291;52.010;4.446;2024-02-15T04:17:16;12.20;99.90
47521;DHT22;32291;52.010;4.446;2024-02-15T04:18:19;12.30;99.90
47521;DHT22;32291;52.010;4.446;2024-02-15T04:19:27;12.30;99.90
47521;DHT22;32291;52.010;4.446;2024-02-15T04:20:34;12.20;99.90
47521;DHT22;32291;52.010;4.446;2024-02-15T04:21:40;12.30;99.90
47521;DHT22;32291;52.010;4.446;2024-02-15T04:22:43;12.20;99.90
47521;DHT22;32291;52.010;4.446;2024-02-15T04:23:46;12.20;99.90
47521;DHT22;32291;52.010;4.446;2024-02-15T04:24:56;12.20;99.90
47521;DHT22;32291;52.010;4.446;2024-02-15T04:26:03;12.20;99.90
47521;DHT22;32291;52.010;4.446;2024-02-15T04:27:10;12.20;99.90
47521;DHT22;32291;52.010;4.446;2024-02-15T04:28:27;12.20;99.90
47521;DHT22;32291;52.010;4.446;2024-02-15T04:29:36;12.20;99.90
47521;DHT22;32291;52.010;4.446;2024-02-15T04:30:45;12.20;99.90
47521;DHT22;32291;52.010;4.446;2024-02-15T04:31:54;12.20;99.90
47521;DHT22;32291;52.010;4.446;2024-02-15T04:32:56;12.20;99.90
47521;DHT22;32291;52.010;4.446;2024-02-15T04:33:58;12.20;99.90
47521;DHT22;32291;52.010;4.446;2024-02-15T04:35:05;12.20;99.90
47521;DHT22;32291;52.010;4.446;2024-02-15T04:36:14;12.20;99.90
47521;DHT22;32291;52.010;4.446;2024-02-15T04:37:24;12.20;99.90
47521;DHT22;32291;52.010;4.446;2024-02-15T04:38:29;12.20;99.90
47521;DHT22;32291;52.010;4.446;2024-02-15T04:39:36;12.20;99.90
47521;DHT22;32291;52.010;4.446;2024-02-15T04:40:44;12.20;99.90
47521;DHT22;32291;52.010;4.446;2024-02-15T04:41:51;12.20;99.90
47521;DHT22;32291;52.010;4.446;2024-02-15T04:42:53;12.20;99.90
47521;DHT22;32291;52.010;4.446;2024-02-15T04:44:00;12.20;99.90
47521;DHT22;32291;52.010;4.446;2024-02-15T04:45:07;12.30;99.90
47521;DHT22;32291;52.010;4.446;2024-02-15T04:46:20;12.30;99.90
47521;DHT22;32291;52.010;4.446;2024-02-15T04:47:31;12.20;99.90
47521;DHT22;32291;52.010;4.446;2024-02-15T04:48:37;12.20;99.90
47521;DHT22;32291;52.010;4.446;2024-02-15T04:49:44;12.20;99.90
47521;DHT22;32291;52.010;4.446;2024-02-15T04:50:51;12.20;99.90
47521;DHT22;32291;52.010;4.446;2024-02-15T04:51:58;12.20;99.90
47521;DHT22;32291;52.010;4.446;2024-02-15T04:53:09;12.20;99.90
47521;DHT22;32291;52.010;4.446;2024-02-15T04:54:15;12.20;99.90
47521;DHT22;32291;52.010;4.446;2024-02-15T04:55:24;12.30;99.90
47521;DHT22;32291;52.010;4.446;2024-02-15T04:56:32;12.20;99.90
47521;DHT22;32291;52.010;4.446;2024-02-15T04:57:40;12.20;99.90
47521;DHT22;32291;52.010;4.446;2024-02-15T04:58:47;12.20;99.90
47521;DHT22;32291;52.010;4.446;2024-02-15T04:59:54;12.20;99.90
47521;DHT22;32291;52.010;4.446;2024-02-15T05:01:02;12.20;99.90
47521;DHT22;32291;52.010;4.446;2024-02-15T05:02:11;12.20;99.90
47521;DHT22;32291;52.010;4.446;2024-02-15T05:03:18;12.20;99.90
47521;DHT22;32291;52.010;4.446;2024-02-15T05:04:24;12.20;99.90
47521;DHT22;32291;52.010;4.446;2024-02-15T05:05:28;12.10;99.90
47521;DHT22;32291;52.010;4.446;2024-02-15T05:06:31;12.10;99.90
47521;DHT22;32291;52.010;4.446;2024-02-15T05:07:34;12.20;99.90
47521;DHT22;32291;52.010;4.446;2024-02-15T05:08:44;12.10;99.90
47521;DHT22;32291;52.010;4.446;2024-02-15T05:09:51;12.20;99.90
47521;DHT22;32291;52.010;4.446;2024-02-15T05:10:56;12.10;99.90
47521;DHT22;32291;52.010;4.446;2024-02-15T05:12:04;12.10;99.90
47521;DHT22;32291;52.010;4.446;2024-02-15T05:13:12;12.20;99.90
47521;DHT22;32291;52.010;4.446;2024-02-15T05:14:18;12.20;99.90
47521;DHT22;32291;52.010;4.446;2024-02-15T05:15:22;12.20;99.90
47521;DHT22;32291;52.010;4.446;2024-02-15T05:16:36;12.20;99.90
47521;DHT22;32291;52.010;4.446;2024-02-15T05:17:48;12.10;99.90
47521;DHT22;32291;52.010;4.446;2024-02-15T05:18:55;12.20;99.90
47521;DHT22;32291;52.010;4.446;2024-02-15T05:20:02;12.10;99.90
47521;DHT22;32291;52.010;4.446;2024-02-15T05:21:16;12.10;99.90
47521;DHT22;32291;52.010;4.446;2024-02-15T05:22:18;12.10;99.90
47521;DHT22;32291;52.010;4.446;2024-02-15T05:23:25;12.20;99.90
47521;DHT22;32291;52.010;4.446;2024-02-15T05:24:32;12.20;99.90
47521;DHT22;32291;52.010;4.446;2024-02-15T05:25:35;12.10;99.90
47521;DHT22;32291;52.010;4.446;2024-02-15T05:26:37;12.10;99.90
47521;DHT22;32291;52.010;4.446;2024-02-15T05:27:44;12.10;99.90
47521;DHT22;32291;52.010;4.446;2024-02-15T05:28:53;12.10;99.90
47521;DHT22;32291;52.010;4.446;2024-02-15T05:29:59;12.10;99.90
47521;DHT22;32291;52.010;4.446;2024-02-15T05:32:21;12.10;99.90
47521;DHT22;32291;52.010;4.446;2024-02-15T05:33:28;12.20;99.90
47521;DHT22;32291;52.010;4.446;2024-02-15T05:34:39;12.10;99.90
47521;DHT22;32291;52.010;4.446;2024-02-15T05:35:46;12.10;99.90
47521;DHT22;32291;52.010;4.446;2024-02-15T05:36:56;12.10;99.90
47521;DHT22;32291;52.010;4.446;2024-02-15T05:38:03;12.10;99.90
47521;DHT22;32291;52.010;4.446;2024-02-15T05:39:11;12.10;99.90
47521;DHT22;32291;52.010;4.446;2024-02-15T05:40:20;12.10;99.90
47521;DHT22;32291;52.010;4.446;2024-02-15T05:41:27;12.10;99.90
47521;DHT22;32291;52.010;4.446;2024-02-15T05:42:30;12.10;99.90
47521;DHT22;32291;52.010;4.446;2024-02-15T05:43:38;12.10;99.90
47521;DHT22;32291;52.010;4.446;2024-02-15T05:44:46;12.20;99.90
47521;DHT22;32291;52.010;4.446;2024-02-15T05:45:52;12.20;99.90
47521;DHT22;32291;52.010;4.446;2024-02-15T05:46:55;12.10;99.90
47521;DHT22;32291;52.010;4.446;2024-02-15T05:48:04;12.20;99.90
47521;DHT22;32291;52.010;4.446;2024-02-15T05:49:08;12.20;99.90
47521;DHT22;32291;52.010;4.446;2024-02-15T05:50:16;12.20;99.90
47521;DHT22;32291;52.010;4.446;2024-02-15T05:51:26;12.20;99.90
47521;DHT22;32291;52.010;4.446;2024-02-15T05:52:34;12.20;99.90
47521;DHT22;32291;52.010;4.446;2024-02-15T05:53:36;12.10;99.90
47521;DHT22;32291;52.010;4.446;2024-02-15T05:54:47;12.10;99.90
47521;DHT22;32291;52.010;4.446;2024-02-15T05:55:50;12.20;99.90
47521;DHT22;32291;52.010;4.446;2024-02-15T05:56:57;12.20;99.90
47521;DHT22;32291;52.010;4.446;2024-02-15T05:58:08;12.10;99.90
47521;DHT22;32291;52.010;4.446;2024-02-15T05:59:16;12.10;99.90
47521;DHT22;32291;52.010;4.446;2024-02-15T06:00:21;12.10;99.90
47521;DHT22;32291;52.010;4.446;2024-02-15T06:01:29;12.10;99.90
47521;DHT22;32291;52.010;4.446;2024-02-15T06:02:36;12.10;99.90
47521;DHT22;32291;52.010;4.446;2024-02-15T06:03:41;12.10;99.90
47521;DHT22;32291;52.010;4.446;2024-02-15T06:04:50;12.20;99.90
47521;DHT22;32291;52.010;4.446;2024-02-15T06:06:00;12.10;99.90
47521;DHT22;32291;52.010;4.446;2024-02-15T06:07:08;12.10;99.90
47521;DHT22;32291;52.010;4.446;2024-02-15T06:08:16;12.10;99.90
47521;DHT22;32291;52.010;4.446;2024-02-15T06:09:19;12.10;99.90
47521;DHT22;32291;52.010;4.446;2024-02-15T06:10:28;12.10;99.90
47521;DHT22;32291;52.010;4.446;2024-02-15T06:11:35;12.10;99.90
47521;DHT22;32291;52.010;4.446;2024-02-15T06:12:44;12.10;99.90
47521;DHT22;32291;52.010;4.446;2024-02-15T06:13:51;12.10;99.90
47521;DHT22;32291;52.010;4.446;2024-02-15T06:14:53;12.10;99.90
47521;DHT22;32291;52.010;4.446;2024-02-15T06:15:55;12.20;99.90
47521;DHT22;32291;52.010;4.446;2024-02-15T06:17:02;12.10;99.90
47521;DHT22;32291;52.010;4.446;2024-02-15T06:18:12;12.10;99.90
47521;DHT22;32291;52.010;4.446;2024-02-15T06:19:16;12.10;99.90
47521;DHT22;32291;52.010;4.446;2024-02-15T06:20:23;12.20;99.90
47521;DHT22;32291;52.010;4.446;2024-02-15T06:21:26;12.20;99.90
47521;DHT22;32291;52.010;4.446;2024-02-15T06:22:34;12.20;99.90
47521;DHT22;32291;52.010;4.446;2024-02-15T06:23:37;12.10;99.90
47521;DHT22;32291;52.010;4.446;2024-02-15T06:24:46;12.10;99.90
47521;DHT22;32291;52.010;4.446;2024-02-15T06:25:51;12.10;99.90
47521;DHT22;32291;52.010;4.446;2024-02-15T06:27:00;12.10;99.90
47521;DHT22;32291;52.010;4.446;2024-02-15T06:28:05;12.10;99.90
47521;DHT22;32291;52.010;4.446;2024-02-15T06:29:15;12.10;99.90
47521;DHT22;32291;52.010;4.446;2024-02-15T06:30:36;12.10;99.90
47521;DHT22;32291;52.010;4.446;2024-02-15T06:32:01;12.20;99.90
47521;DHT22;32291;52.010;4.446;2024-02-15T06:33:28;12.10;99.90
47521;DHT22;32291;52.010;4.446;2024-02-15T06:34:54;12.10;99.90
47521;DHT22;32291;52.010;4.446;2024-02-15T06:36:20;12.20;99.90
47521;DHT22;32291;52.010;4.446;2024-02-15T06:37:45;12.10;99.90
47521;DHT22;32291;52.010;4.446;2024-02-15T06:39:10;12.20;99.90
47521;DHT22;32291;52.010;4.446;2024-02-15T06:40:31;12.10;99.90
47521;DHT22;32291;52.010;4.446;2024-02-15T06:41:37;12.20;99.90
47521;DHT22;32291;52.010;4.446;2024-02-15T06:42:45;12.20;99.90
47521;DHT22;32291;52.010;4.446;2024-02-15T06:43:47;12.20;99.90
47521;DHT22;32291;52.010;4.446;2024-02-15T06:44:54;12.20;99.90
47521;DHT22;32291;52.010;4.446;2024-02-15T06:46:02;12.20;99.90
47521;DHT22;32291;52.010;4.446;2024-02-15T06:47:04;12.20;99.90
47521;DHT22;32291;52.010;4.446;2024-02-15T06:48:11;12.20;99.90
47521;DHT22;32291;52.010;4.446;2024-02-15T06:49:18;12.20;99.90
47521;DHT22;32291;52.010;4.446;2024-02-15T06:50:21;12.20;99.90
47521;DHT22;32291;52.010;4.446;2024-02-15T06:51:28;12.20;99.90
47521;DHT22;32291;52.010;4.446;2024-02-15T06:52:35;12.20;99.90
47521;DHT22;32291;52.010;4.446;2024-02-15T06:53:39;12.20;99.90
47521;DHT22;32291;52.010;4.446;2024-02-15T06:54:41;12.20;99.90
47521;DHT22;32291;52.010;4.446;2024-02-15T06:55:48;12.20;99.90
47521;DHT22;32291;52.010;4.446;2024-02-15T06:56:55;12.20;99.90
47521;DHT22;32291;52.010;4.446;2024-02-15T06:58:02;12.30;99.90
47521;DHT22;32291;52.010;4.446;2024-02-15T06:59:05;12.20;99.90
47521;DHT22;32291;52.010;4.446;2024-02-15T07:00:12;12.20;99.90
47521;DHT22;32291;52.010;4.446;2024-02-15T07:01:24;12.20;99.90
47521;DHT22;32291;52.010;4.446;2024-02-15T07:02:31;12.20;99.90
47521;DHT22;32291;52.010;4.446;2024-02-15T07:03:34;12.20;99.90
47521;DHT22;32291;52.010;4.446;2024-02-15T07:04:41;12.20;99.90